sensor_id;sensor_type;location;lat;lon;timestamp;P1;durP1;ratioP1;P2;durP2;ratioP2
16890;SDS011;8562;52.246;20.966;2023-07-31T00:00:48;2.03;;;1.60;;
16890;SDS011;8562;52.246;20.966;2023-07-31T00:03:13;1.37;;;1.20;;
16890;SDS011;8562;52.246;20.966;2023-07-31T00:05:38;1.67;;;1.27;;
16890;SDS011;8562;52.246;20.966;2023-07-31T00:08:04;1.80;;;1.50;;
16890;SDS011;8562;52.246;20.966;2023-07-31T00:10:29;1.20;;;1.10;;
16890;SDS011;8562;52.246;20.966;2023-07-31T00:12:54;1.50;;;1.27;;
16890;SDS011;8562;52.246;20.966;2023-07-31T00:15:19;1.30;;;1.20;;
16890;SDS011;8562;52.246;20.966;2023-07-31T00:17:45;2.23;;;1.50;;
16890;SDS011;8562;52.246;20.966;2023-07-31T00:20:10;1.77;;;1.23;;
16890;SDS011;8562;52.246;20.966;2023-07-31T00:22:35;2.97;;;1.17;;
16890;SDS011;8562;52.246;20.966;2023-07-31T00:25:01;3.00;;;1.80;;
16890;SDS011;8562;52.246;20.966;2023-07-31T00:27:26;1.70;;;1.20;;
16890;SDS011;8562;52.246;20.966;2023-07-31T00:29:52;0.90;;;0.90;;
16890;SDS011;8562;52.246;20.966;2023-07-31T00:32:17;1.83;;;1.33;;
16890;SDS011;8562;52.246;20.966;2023-07-31T00:34:42;1.87;;;1.20;;
16890;SDS011;8562;52.246;20.966;2023-07-31T00:37:08;1.67;;;1.30;;
16890;SDS011;8562;52.246;20.966;2023-07-31T00:39:34;1.80;;;1.40;;
16890;SDS011;8562;52.246;20.966;2023-07-31T00:41:59;2.67;;;1.57;;
16890;SDS011;8562;52.246;20.966;2023-07-31T00:44:24;1.47;;;1.37;;
16890;SDS011;8562;52.246;20.966;2023-07-31T00:46:50;2.00;;;1.23;;
16890;SDS011;8562;52.246;20.966;2023-07-31T00:49:15;2.00;;;1.40;;
16890;SDS011;8562;52.246;20.966;2023-07-31T00:51:41;1.50;;;1.20;;
16890;SDS011;8562;52.246;20.966;2023-07-31T00:54:06;1.67;;;1.20;;
16890;SDS011;8562;52.246;20.966;2023-07-31T00:56:31;1.87;;;1.30;;
16890;SDS011;8562;52.246;20.966;2023-07-31T00:58:57;1.90;;;1.67;;
16890;SDS011;8562;52.246;20.966;2023-07-31T01:01:22;2.30;;;1.63;;
16890;SDS011;8562;52.246;20.966;2023-07-31T01:03:48;7.07;;;1.50;;
16890;SDS011;8562;52.246;20.966;2023-07-31T01:08:53;3.43;;;1.70;;
16890;SDS011;8562;52.246;20.966;2023-07-31T01:11:22;3.13;;;1.47;;
16890;SDS011;8562;52.246;20.966;2023-07-31T01:13:49;6.10;;;1.80;;
16890;SDS011;8562;52.246;20.966;2023-07-31T01:16:15;3.13;;;1.60;;
16890;SDS011;8562;52.246;20.966;2023-07-31T01:18:40;3.77;;;1.83;;
16890;SDS011;8562;52.246;20.966;2023-07-31T01:23:51;4.00;;;1.67;;
16890;SDS011;8562;52.246;20.966;2023-07-31T01:26:19;1.83;;;1.40;;
16890;SDS011;8562;52.246;20.966;2023-07-31T01:28:56;3.27;;;1.90;;
16890;SDS011;8562;52.246;20.966;2023-07-31T01:31:24;1.83;;;1.40;;
16890;SDS011;8562;52.246;20.966;2023-07-31T01:33:52;3.30;;;2.03;;
16890;SDS011;8562;52.246;20.966;2023-07-31T01:36:19;2.43;;;1.53;;
16890;SDS011;8562;52.246;20.966;2023-07-31T01:38:44;1.60;;;1.50;;
16890;SDS011;8562;52.246;20.966;2023-07-31T01:41:09;2.97;;;1.57;;
16890;SDS011;8562;52.246;20.966;2023-07-31T01:43:35;2.70;;;1.50;;
16890;SDS011;8562;52.246;20.966;2023-07-31T01:46:00;1.93;;;1.60;;
16890;SDS011;8562;52.246;20.966;2023-07-31T01:48:25;2.50;;;1.80;;
16890;SDS011;8562;52.246;20.966;2023-07-31T01:50:51;1.70;;;1.33;;
16890;SDS011;8562;52.246;20.966;2023-07-31T01:53:16;3.97;;;1.77;;
16890;SDS011;8562;52.246;20.966;2023-07-31T01:55:42;2.80;;;1.90;;
16890;SDS011;8562;52.246;20.966;2023-07-31T01:58:07;2.73;;;1.73;;
16890;SDS011;8562;52.246;20.966;2023-07-31T02:00:32;1.43;;;1.33;;
16890;SDS011;8562;52.246;20.966;2023-07-31T02:02:59;1.63;;;1.47;;
16890;SDS011;8562;52.246;20.966;2023-07-31T02:05:24;1.97;;;1.40;;
16890;SDS011;8562;52.246;20.966;2023-07-31T02:07:49;2.13;;;1.60;;
16890;SDS011;8562;52.246;20.966;2023-07-31T02:10:15;1.77;;;1.67;;
16890;SDS011;8562;52.246;20.966;2023-07-31T02:12:40;1.87;;;1.50;;
16890;SDS011;8562;52.246;20.966;2023-07-31T02:15:06;4.37;;;1.60;;
16890;SDS011;8562;52.246;20.966;2023-07-31T02:17:31;3.57;;;1.97;;
16890;SDS011;8562;52.246;20.966;2023-07-31T02:19:56;3.53;;;1.90;;
16890;SDS011;8562;52.246;20.966;2023-07-31T02:22:21;2.60;;;1.50;;
16890;SDS011;8562;52.246;20.966;2023-07-31T02:24:47;1.73;;;1.60;;
16890;SDS011;8562;52.246;20.966;2023-07-31T02:27:12;2.50;;;2.10;;
16890;SDS011;8562;52.246;20.966;2023-07-31T02:29:37;2.33;;;1.80;;
16890;SDS011;8562;52.246;20.966;2023-07-31T02:32:03;3.23;;;2.13;;
16890;SDS011;8562;52.246;20.966;2023-07-31T02:34:28;3.90;;;2.60;;
16890;SDS011;8562;52.246;20.966;2023-07-31T02:36:53;2.67;;;2.00;;
16890;SDS011;8562;52.246;20.966;2023-07-31T02:39:18;2.53;;;1.83;;
16890;SDS011;8562;52.246;20.966;2023-07-31T02:41:46;1.90;;;1.60;;
16890;SDS011;8562;52.246;20.966;2023-07-31T02:44:11;2.30;;;1.83;;
16890;SDS011;8562;52.246;20.966;2023-07-31T02:46:39;2.97;;;2.13;;
16890;SDS011;8562;52.246;20.966;2023-07-31T02:49:04;3.20;;;1.93;;
16890;SDS011;8562;52.246;20.966;2023-07-31T02:51:30;4.33;;;2.33;;
16890;SDS011;8562;52.246;20.966;2023-07-31T02:53:55;4.93;;;2.10;;
16890;SDS011;8562;52.246;20.966;2023-07-31T02:56:20;2.97;;;2.37;;
16890;SDS011;8562;52.246;20.966;2023-07-31T02:58:45;2.53;;;2.13;;
16890;SDS011;8562;52.246;20.966;2023-07-31T03:01:11;2.23;;;2.00;;
16890;SDS011;8562;52.246;20.966;2023-07-31T03:03:36;3.13;;;2.20;;
16890;SDS011;8562;52.246;20.966;2023-07-31T03:06:01;2.97;;;2.00;;
16890;SDS011;8562;52.246;20.966;2023-07-31T03:08:26;2.50;;;1.63;;
16890;SDS011;8562;52.246;20.966;2023-07-31T03:10:52;3.47;;;1.80;;
16890;SDS011;8562;52.246;20.966;2023-07-31T03:13:17;3.40;;;2.10;;
16890;SDS011;8562;52.246;20.966;2023-07-31T03:15:42;2.20;;;1.97;;
16890;SDS011;8562;52.246;20.966;2023-07-31T03:18:08;3.10;;;2.27;;
16890;SDS011;8562;52.246;20.966;2023-07-31T03:20:33;3.20;;;2.20;;
16890;SDS011;8562;52.246;20.966;2023-07-31T03:22:59;3.37;;;2.00;;
16890;SDS011;8562;52.246;20.966;2023-07-31T03:25:24;5.27;;;2.20;;
16890;SDS011;8562;52.246;20.966;2023-07-31T03:27:49;2.97;;;2.20;;
16890;SDS011;8562;52.246;20.966;2023-07-31T03:30:15;2.30;;;2.03;;
16890;SDS011;8562;52.246;20.966;2023-07-31T03:32:41;4.77;;;2.40;;
16890;SDS011;8562;52.246;20.966;2023-07-31T03:35:06;2.40;;;2.17;;
16890;SDS011;8562;52.246;20.966;2023-07-31T03:37:31;5.33;;;2.30;;
16890;SDS011;8562;52.246;20.966;2023-07-31T03:39:57;3.50;;;1.80;;
16890;SDS011;8562;52.246;20.966;2023-07-31T03:42:22;2.17;;;1.97;;
16890;SDS011;8562;52.246;20.966;2023-07-31T03:44:49;3.23;;;2.20;;
16890;SDS011;8562;52.246;20.966;2023-07-31T03:47:15;2.27;;;1.80;;
16890;SDS011;8562;52.246;20.966;2023-07-31T03:49:41;3.07;;;2.00;;
16890;SDS011;8562;52.246;20.966;2023-07-31T03:52:06;3.23;;;1.70;;
16890;SDS011;8562;52.246;20.966;2023-07-31T03:54:31;2.80;;;2.03;;
16890;SDS011;8562;52.246;20.966;2023-07-31T03:56:57;3.20;;;2.03;;
16890;SDS011;8562;52.246;20.966;2023-07-31T03:59:22;3.43;;;2.17;;
16890;SDS011;8562;52.246;20.966;2023-07-31T04:01:47;3.97;;;2.10;;
16890;SDS011;8562;52.246;20.966;2023-07-31T04:04:13;2.43;;;2.03;;
16890;SDS011;8562;52.246;20.966;2023-07-31T04:06:38;5.80;;;2.47;;
16890;SDS011;8562;52.246;20.966;2023-07-31T04:09:03;3.77;;;1.67;;
16890;SDS011;8562;52.246;20.966;2023-07-31T04:11:28;3.73;;;1.80;;
16890;SDS011;8562;52.246;20.966;2023-07-31T04:13:54;2.17;;;1.97;;
16890;SDS011;8562;52.246;20.966;2023-07-31T04:16:19;1.60;;;1.50;;
16890;SDS011;8562;52.246;20.966;2023-07-31T04:18:44;3.33;;;2.27;;
16890;SDS011;8562;52.246;20.966;2023-07-31T04:21:09;3.67;;;1.93;;
16890;SDS011;8562;52.246;20.966;2023-07-31T04:23:35;2.20;;;1.80;;
16890;SDS011;8562;52.246;20.966;2023-07-31T04:26:00;1.70;;;1.60;;
16890;SDS011;8562;52.246;20.966;2023-07-31T04:28:25;3.10;;;1.90;;
16890;SDS011;8562;52.246;20.966;2023-07-31T04:30:51;3.03;;;1.93;;
16890;SDS011;8562;52.246;20.966;2023-07-31T04:33:16;2.60;;;1.70;;
16890;SDS011;8562;52.246;20.966;2023-07-31T04:35:41;2.73;;;1.87;;
16890;SDS011;8562;52.246;20.966;2023-07-31T04:38:06;3.23;;;2.50;;
16890;SDS011;8562;52.246;20.966;2023-07-31T04:40:32;2.50;;;2.00;;
16890;SDS011;8562;52.246;20.966;2023-07-31T04:42:57;4.00;;;2.40;;
16890;SDS011;8562;52.246;20.966;2023-07-31T04:45:23;2.43;;;2.03;;
16890;SDS011;8562;52.246;20.966;2023-07-31T04:47:48;3.50;;;2.00;;
16890;SDS011;8562;52.246;20.966;2023-07-31T04:50:13;2.27;;;2.00;;
16890;SDS011;8562;52.246;20.966;2023-07-31T04:52:39;2.17;;;1.80;;
16890;SDS011;8562;52.246;20.966;2023-07-31T04:55:04;4.50;;;2.20;;
16890;SDS011;8562;52.246;20.966;2023-07-31T04:57:29;4.00;;;1.87;;
16890;SDS011;8562;52.246;20.966;2023-07-31T04:59:54;5.77;;;2.17;;
16890;SDS011;8562;52.246;20.966;2023-07-31T05:02:20;2.37;;;2.03;;
16890;SDS011;8562;52.246;20.966;2023-07-31T05:04:45;3.03;;;2.40;;
16890;SDS011;8562;52.246;20.966;2023-07-31T05:07:10;3.33;;;2.03;;
16890;SDS011;8562;52.246;20.966;2023-07-31T05:09:36;3.83;;;2.23;;
16890;SDS011;8562;52.246;20.966;2023-07-31T05:12:01;3.70;;;1.93;;
16890;SDS011;8562;52.246;20.966;2023-07-31T05:14:26;2.83;;;2.03;;
16890;SDS011;8562;52.246;20.966;2023-07-31T05:16:52;4.20;;;2.10;;
16890;SDS011;8562;52.246;20.966;2023-07-31T05:19:17;3.40;;;1.50;;
16890;SDS011;8562;52.246;20.966;2023-07-31T05:21:43;4.20;;;1.90;;
16890;SDS011;8562;52.246;20.966;2023-07-31T05:24:10;2.20;;;2.00;;
16890;SDS011;8562;52.246;20.966;2023-07-31T05:26:35;3.57;;;2.10;;
16890;SDS011;8562;52.246;20.966;2023-07-31T05:29:00;2.83;;;2.17;;
16890;SDS011;8562;52.246;20.966;2023-07-31T05:31:26;2.57;;;2.00;;
16890;SDS011;8562;52.246;20.966;2023-07-31T05:33:51;2.20;;;2.00;;
16890;SDS011;8562;52.246;20.966;2023-07-31T05:36:16;3.17;;;2.20;;
16890;SDS011;8562;52.246;20.966;2023-07-31T05:38:42;2.43;;;1.77;;
16890;SDS011;8562;52.246;20.966;2023-07-31T05:41:09;3.63;;;2.40;;
16890;SDS011;8562;52.246;20.966;2023-07-31T05:43:34;3.57;;;2.20;;
16890;SDS011;8562;52.246;20.966;2023-07-31T05:46:00;1.90;;;1.67;;
16890;SDS011;8562;52.246;20.966;2023-07-31T05:48:26;1.50;;;1.40;;
16890;SDS011;8562;52.246;20.966;2023-07-31T05:50:51;2.57;;;1.83;;
16890;SDS011;8562;52.246;20.966;2023-07-31T05:53:17;4.03;;;2.37;;
16890;SDS011;8562;52.246;20.966;2023-07-31T05:55:42;4.27;;;2.00;;
16890;SDS011;8562;52.246;20.966;2023-07-31T05:58:07;3.37;;;1.90;;
16890;SDS011;8562;52.246;20.966;2023-07-31T06:00:32;2.40;;;1.77;;
16890;SDS011;8562;52.246;20.966;2023-07-31T06:02:58;2.23;;;1.87;;
16890;SDS011;8562;52.246;20.966;2023-07-31T06:05:23;1.83;;;1.63;;
16890;SDS011;8562;52.246;20.966;2023-07-31T06:07:48;2.97;;;1.77;;
16890;SDS011;8562;52.246;20.966;2023-07-31T06:10:14;1.87;;;1.60;;
16890;SDS011;8562;52.246;20.966;2023-07-31T06:12:42;1.77;;;1.30;;
16890;SDS011;8562;52.246;20.966;2023-07-31T06:15:07;2.80;;;1.43;;
16890;SDS011;8562;52.246;20.966;2023-07-31T06:17:32;2.97;;;2.07;;
16890;SDS011;8562;52.246;20.966;2023-07-31T06:19:58;2.37;;;1.90;;
16890;SDS011;8562;52.246;20.966;2023-07-31T06:22:23;1.90;;;1.70;;
16890;SDS011;8562;52.246;20.966;2023-07-31T06:24:48;2.03;;;1.57;;
16890;SDS011;8562;52.246;20.966;2023-07-31T06:27:14;2.27;;;1.87;;
16890;SDS011;8562;52.246;20.966;2023-07-31T06:29:39;2.80;;;1.80;;
16890;SDS011;8562;52.246;20.966;2023-07-31T06:32:04;1.90;;;1.70;;
16890;SDS011;8562;52.246;20.966;2023-07-31T06:34:30;3.13;;;2.07;;
16890;SDS011;8562;52.246;20.966;2023-07-31T06:36:55;2.43;;;1.67;;
16890;SDS011;8562;52.246;20.966;2023-07-31T06:39:21;1.73;;;1.63;;
16890;SDS011;8562;52.246;20.966;2023-07-31T06:41:46;3.23;;;2.90;;
16890;SDS011;8562;52.246;20.966;2023-07-31T06:44:11;6.53;;;3.73;;
16890;SDS011;8562;52.246;20.966;2023-07-31T06:46:37;2.90;;;2.27;;
16890;SDS011;8562;52.246;20.966;2023-07-31T06:49:02;3.90;;;2.20;;
16890;SDS011;8562;52.246;20.966;2023-07-31T06:51:28;3.27;;;2.33;;
16890;SDS011;8562;52.246;20.966;2023-07-31T06:53:53;2.07;;;1.80;;
16890;SDS011;8562;52.246;20.966;2023-07-31T06:56:18;2.70;;;2.10;;
16890;SDS011;8562;52.246;20.966;2023-07-31T06:58:44;6.07;;;2.40;;
16890;SDS011;8562;52.246;20.966;2023-07-31T07:01:09;2.87;;;2.20;;
16890;SDS011;8562;52.246;20.966;2023-07-31T07:03:34;3.03;;;2.23;;
16890;SDS011;8562;52.246;20.966;2023-07-31T07:05:59;4.47;;;1.97;;
16890;SDS011;8562;52.246;20.966;2023-07-31T07:08:25;6.80;;;1.97;;
16890;SDS011;8562;52.246;20.966;2023-07-31T07:10:50;3.93;;;2.50;;
16890;SDS011;8562;52.246;20.966;2023-07-31T07:13:15;2.93;;;2.27;;
16890;SDS011;8562;52.246;20.966;2023-07-31T07:15:41;4.23;;;2.00;;
16890;SDS011;8562;52.246;20.966;2023-07-31T07:18:06;2.53;;;1.83;;
16890;SDS011;8562;52.246;20.966;2023-07-31T07:20:32;4.80;;;2.27;;
16890;SDS011;8562;52.246;20.966;2023-07-31T07:22:57;3.47;;;2.60;;
16890;SDS011;8562;52.246;20.966;2023-07-31T07:25:23;2.57;;;2.03;;
16890;SDS011;8562;52.246;20.966;2023-07-31T07:27:48;5.37;;;2.80;;
16890;SDS011;8562;52.246;20.966;2023-07-31T07:30:14;2.60;;;1.90;;
16890;SDS011;8562;52.246;20.966;2023-07-31T07:32:39;2.67;;;1.70;;
16890;SDS011;8562;52.246;20.966;2023-07-31T07:35:05;2.23;;;2.00;;
16890;SDS011;8562;52.246;20.966;2023-07-31T07:37:30;6.27;;;2.20;;
16890;SDS011;8562;52.246;20.966;2023-07-31T07:39:55;6.53;;;2.43;;
16890;SDS011;8562;52.246;20.966;2023-07-31T07:42:22;2.57;;;1.90;;
16890;SDS011;8562;52.246;20.966;2023-07-31T07:44:47;3.23;;;1.60;;
16890;SDS011;8562;52.246;20.966;2023-07-31T07:47:13;1.93;;;1.73;;
16890;SDS011;8562;52.246;20.966;2023-07-31T07:49:38;4.83;;;3.10;;
16890;SDS011;8562;52.246;20.966;2023-07-31T07:52:03;5.73;;;2.50;;
16890;SDS011;8562;52.246;20.966;2023-07-31T07:54:29;4.03;;;2.33;;
16890;SDS011;8562;52.246;20.966;2023-07-31T07:56:55;4.60;;;1.70;;
16890;SDS011;8562;52.246;20.966;2023-07-31T07:59:20;2.83;;;2.00;;
16890;SDS011;8562;52.246;20.966;2023-07-31T08:01:45;2.73;;;2.10;;
16890;SDS011;8562;52.246;20.966;2023-07-31T08:04:11;4.07;;;2.30;;
16890;SDS011;8562;52.246;20.966;2023-07-31T08:06:36;5.33;;;2.23;;
16890;SDS011;8562;52.246;20.966;2023-07-31T08:09:01;1.90;;;1.80;;
16890;SDS011;8562;52.246;20.966;2023-07-31T08:11:31;2.10;;;1.73;;
16890;SDS011;8562;52.246;20.966;2023-07-31T08:13:56;2.93;;;2.10;;
16890;SDS011;8562;52.246;20.966;2023-07-31T08:16:21;1.93;;;1.70;;
16890;SDS011;8562;52.246;20.966;2023-07-31T08:18:47;1.53;;;1.30;;
16890;SDS011;8562;52.246;20.966;2023-07-31T08:21:12;1.60;;;1.50;;
16890;SDS011;8562;52.246;20.966;2023-07-31T08:23:37;2.93;;;1.80;;
16890;SDS011;8562;52.246;20.966;2023-07-31T08:26:03;4.23;;;3.00;;
16890;SDS011;8562;52.246;20.966;2023-07-31T08:28:28;3.07;;;1.80;;
16890;SDS011;8562;52.246;20.966;2023-07-31T08:30:53;2.70;;;1.63;;
16890;SDS011;8562;52.246;20.966;2023-07-31T08:33:18;2.47;;;1.80;;
16890;SDS011;8562;52.246;20.966;2023-07-31T08:35:44;2.20;;;1.50;;
16890;SDS011;8562;52.246;20.966;2023-07-31T08:38:09;3.70;;;1.50;;
16890;SDS011;8562;52.246;20.966;2023-07-31T08:40:37;3.30;;;1.53;;
16890;SDS011;8562;52.246;20.966;2023-07-31T08:43:07;3.17;;;2.00;;
16890;SDS011;8562;52.246;20.966;2023-07-31T08:45:32;2.17;;;1.73;;
16890;SDS011;8562;52.246;20.966;2023-07-31T08:47:57;1.53;;;1.40;;
16890;SDS011;8562;52.246;20.966;2023-07-31T08:50:23;3.27;;;1.70;;
16890;SDS011;8562;52.246;20.966;2023-07-31T08:52:50;1.70;;;1.60;;
16890;SDS011;8562;52.246;20.966;2023-07-31T08:55:16;4.40;;;1.53;;
16890;SDS011;8562;52.246;20.966;2023-07-31T08:57:41;2.37;;;2.00;;
16890;SDS011;8562;52.246;20.966;2023-07-31T09:00:07;2.63;;;1.77;;
16890;SDS011;8562;52.246;20.966;2023-07-31T09:02:52;2.90;;;1.27;;
16890;SDS011;8562;52.246;20.966;2023-07-31T09:05:19;1.80;;;1.70;;
16890;SDS011;8562;52.246;20.966;2023-07-31T09:07:45;4.17;;;1.47;;
16890;SDS011;8562;52.246;20.966;2023-07-31T09:10:12;2.07;;;1.77;;
16890;SDS011;8562;52.246;20.966;2023-07-31T09:12:37;4.87;;;1.60;;
16890;SDS011;8562;52.246;20.966;2023-07-31T09:15:03;3.07;;;1.80;;
16890;SDS011;8562;52.246;20.966;2023-07-31T09:17:29;1.23;;;1.03;;
16890;SDS011;8562;52.246;20.966;2023-07-31T09:19:56;1.87;;;1.30;;
16890;SDS011;8562;52.246;20.966;2023-07-31T09:22:31;1.87;;;1.27;;
16890;SDS011;8562;52.246;20.966;2023-07-31T09:24:57;3.73;;;1.33;;
16890;SDS011;8562;52.246;20.966;2023-07-31T09:27:29;4.53;;;1.77;;
16890;SDS011;8562;52.246;20.966;2023-07-31T09:30:10;2.13;;;1.50;;
16890;SDS011;8562;52.246;20.966;2023-07-31T09:32:35;4.17;;;1.80;;
16890;SDS011;8562;52.246;20.966;2023-07-31T09:35:13;1.60;;;1.50;;
16890;SDS011;8562;52.246;20.966;2023-07-31T09:37:38;3.23;;;2.40;;
16890;SDS011;8562;52.246;20.966;2023-07-31T09:40:03;2.07;;;1.50;;
16890;SDS011;8562;52.246;20.966;2023-07-31T09:42:29;6.07;;;1.43;;
16890;SDS011;8562;52.246;20.966;2023-07-31T09:44:58;1.97;;;1.37;;
16890;SDS011;8562;52.246;20.966;2023-07-31T09:47:31;3.13;;;1.37;;
16890;SDS011;8562;52.246;20.966;2023-07-31T09:49:56;2.30;;;1.50;;
16890;SDS011;8562;52.246;20.966;2023-07-31T09:52:22;2.90;;;1.50;;
16890;SDS011;8562;52.246;20.966;2023-07-31T09:54:47;3.30;;;1.50;;
16890;SDS011;8562;52.246;20.966;2023-07-31T09:57:12;4.30;;;1.27;;
16890;SDS011;8562;52.246;20.966;2023-07-31T09:59:38;2.90;;;1.57;;
16890;SDS011;8562;52.246;20.966;2023-07-31T10:02:04;1.77;;;1.13;;
16890;SDS011;8562;52.246;20.966;2023-07-31T10:04:32;1.70;;;1.40;;
16890;SDS011;8562;52.246;20.966;2023-07-31T10:06:57;2.23;;;1.20;;
16890;SDS011;8562;52.246;20.966;2023-07-31T10:09:23;2.43;;;0.80;;
16890;SDS011;8562;52.246;20.966;2023-07-31T10:11:55;2.93;;;0.80;;
16890;SDS011;8562;52.246;20.966;2023-07-31T10:14:22;2.30;;;1.20;;
16890;SDS011;8562;52.246;20.966;2023-07-31T10:16:48;1.03;;;0.93;;
16890;SDS011;8562;52.246;20.966;2023-07-31T10:19:14;2.20;;;1.20;;
16890;SDS011;8562;52.246;20.966;2023-07-31T10:21:39;2.20;;;1.07;;
16890;SDS011;8562;52.246;20.966;2023-07-31T10:24:06;1.33;;;1.20;;
16890;SDS011;8562;52.246;20.966;2023-07-31T10:26:32;1.60;;;1.00;;
16890;SDS011;8562;52.246;20.966;2023-07-31T10:29:00;1.77;;;1.37;;
16890;SDS011;8562;52.246;20.966;2023-07-31T10:31:26;2.40;;;1.00;;
16890;SDS011;8562;52.246;20.966;2023-07-31T10:33:52;3.20;;;1.40;;
16890;SDS011;8562;52.246;20.966;2023-07-31T10:36:18;2.57;;;1.03;;
16890;SDS011;8562;52.246;20.966;2023-07-31T10:38:44;2.23;;;1.27;;
16890;SDS011;8562;52.246;20.966;2023-07-31T10:41:09;1.30;;;1.10;;
16890;SDS011;8562;52.246;20.966;2023-07-31T10:43:36;2.57;;;1.10;;
16890;SDS011;8562;52.246;20.966;2023-07-31T10:46:05;1.23;;;1.07;;
16890;SDS011;8562;52.246;20.966;2023-07-31T10:48:33;0.90;;;0.90;;
16890;SDS011;8562;52.246;20.966;2023-07-31T10:50:58;1.53;;;1.20;;
16890;SDS011;8562;52.246;20.966;2023-07-31T10:53:25;2.60;;;0.90;;
16890;SDS011;8562;52.246;20.966;2023-07-31T10:55:51;1.87;;;0.90;;
16890;SDS011;8562;52.246;20.966;2023-07-31T10:58:18;1.00;;;0.90;;
16890;SDS011;8562;52.246;20.966;2023-07-31T11:00:44;1.63;;;1.10;;
16890;SDS011;8562;52.246;20.966;2023-07-31T11:03:10;1.77;;;0.97;;
16890;SDS011;8562;52.246;20.966;2023-07-31T11:05:47;1.03;;;0.70;;
16890;SDS011;8562;52.246;20.966;2023-07-31T11:08:17;1.87;;;1.17;;
16890;SDS011;8562;52.246;20.966;2023-07-31T11:10:43;0.80;;;0.67;;
16890;SDS011;8562;52.246;20.966;2023-07-31T11:13:08;1.47;;;0.93;;
16890;SDS011;8562;52.246;20.966;2023-07-31T11:15:34;1.00;;;0.90;;
16890;SDS011;8562;52.246;20.966;2023-07-31T11:18:03;1.40;;;0.73;;
16890;SDS011;8562;52.246;20.966;2023-07-31T11:20:29;1.23;;;0.87;;
16890;SDS011;8562;52.246;20.966;2023-07-31T11:22:54;1.80;;;0.90;;
16890;SDS011;8562;52.246;20.966;2023-07-31T11:25:20;3.63;;;1.00;;
16890;SDS011;8562;52.246;20.966;2023-07-31T11:27:47;1.90;;;0.60;;
16890;SDS011;8562;52.246;20.966;2023-07-31T11:30:18;2.27;;;0.70;;
16890;SDS011;8562;52.246;20.966;2023-07-31T11:32:43;2.80;;;0.93;;
16890;SDS011;8562;52.246;20.966;2023-07-31T11:35:12;1.83;;;1.20;;
16890;SDS011;8562;52.246;20.966;2023-07-31T11:37:38;2.07;;;0.90;;
16890;SDS011;8562;52.246;20.966;2023-07-31T11:40:04;3.27;;;1.23;;
16890;SDS011;8562;52.246;20.966;2023-07-31T11:42:30;1.77;;;0.73;;
16890;SDS011;8562;52.246;20.966;2023-07-31T11:44:55;1.00;;;0.80;;
16890;SDS011;8562;52.246;20.966;2023-07-31T11:47:20;4.77;;;2.07;;
16890;SDS011;8562;52.246;20.966;2023-07-31T11:49:46;1.53;;;1.27;;
16890;SDS011;8562;52.246;20.966;2023-07-31T11:52:11;1.17;;;1.07;;
16890;SDS011;8562;52.246;20.966;2023-07-31T11:54:37;1.93;;;0.80;;
16890;SDS011;8562;52.246;20.966;2023-07-31T11:57:02;2.50;;;1.17;;
16890;SDS011;8562;52.246;20.966;2023-07-31T11:59:29;1.13;;;0.90;;
16890;SDS011;8562;52.246;20.966;2023-07-31T12:01:54;1.60;;;0.67;;
16890;SDS011;8562;52.246;20.966;2023-07-31T12:04:20;2.33;;;0.97;;
16890;SDS011;8562;52.246;20.966;2023-07-31T12:06:46;2.17;;;0.90;;
16890;SDS011;8562;52.246;20.966;2023-07-31T12:09:12;2.43;;;1.27;;
16890;SDS011;8562;52.246;20.966;2023-07-31T12:11:45;1.90;;;1.10;;
16890;SDS011;8562;52.246;20.966;2023-07-31T12:14:24;3.20;;;1.23;;
16890;SDS011;8562;52.246;20.966;2023-07-31T12:16:53;1.30;;;0.90;;
16890;SDS011;8562;52.246;20.966;2023-07-31T12:19:18;1.57;;;0.93;;
16890;SDS011;8562;52.246;20.966;2023-07-31T12:21:44;1.97;;;0.83;;
16890;SDS011;8562;52.246;20.966;2023-07-31T12:24:09;2.80;;;1.10;;
16890;SDS011;8562;52.246;20.966;2023-07-31T12:26:35;2.13;;;1.40;;
16890;SDS011;8562;52.246;20.966;2023-07-31T12:29:00;2.77;;;1.10;;
16890;SDS011;8562;52.246;20.966;2023-07-31T12:31:27;1.10;;;0.83;;
16890;SDS011;8562;52.246;20.966;2023-07-31T12:33:52;1.37;;;0.87;;
16890;SDS011;8562;52.246;20.966;2023-07-31T12:36:20;1.60;;;1.20;;
16890;SDS011;8562;52.246;20.966;2023-07-31T12:38:46;2.53;;;1.63;;
16890;SDS011;8562;52.246;20.966;2023-07-31T12:41:11;1.53;;;1.43;;
16890;SDS011;8562;52.246;20.966;2023-07-31T12:43:38;2.10;;;1.70;;
16890;SDS011;8562;52.246;20.966;2023-07-31T12:46:03;3.10;;;2.20;;
16890;SDS011;8562;52.246;20.966;2023-07-31T12:48:29;4.00;;;1.57;;
16890;SDS011;8562;52.246;20.966;2023-07-31T12:50:55;2.83;;;1.50;;
16890;SDS011;8562;52.246;20.966;2023-07-31T12:53:20;1.27;;;1.17;;
16890;SDS011;8562;52.246;20.966;2023-07-31T12:55:46;1.70;;;0.93;;
16890;SDS011;8562;52.246;20.966;2023-07-31T12:58:11;2.00;;;1.13;;
16890;SDS011;8562;52.246;20.966;2023-07-31T13:00:36;3.27;;;1.00;;
16890;SDS011;8562;52.246;20.966;2023-07-31T13:03:02;2.63;;;1.27;;
16890;SDS011;8562;52.246;20.966;2023-07-31T13:05:28;1.13;;;0.97;;
16890;SDS011;8562;52.246;20.966;2023-07-31T13:07:53;5.47;;;1.50;;
16890;SDS011;8562;52.246;20.966;2023-07-31T13:10:19;3.37;;;1.10;;
16890;SDS011;8562;52.246;20.966;2023-07-31T13:12:44;4.13;;;1.10;;
16890;SDS011;8562;52.246;20.966;2023-07-31T13:15:09;2.43;;;1.50;;
16890;SDS011;8562;52.246;20.966;2023-07-31T13:17:35;4.80;;;1.23;;
16890;SDS011;8562;52.246;20.966;2023-07-31T13:20:00;1.20;;;0.90;;
16890;SDS011;8562;52.246;20.966;2023-07-31T13:22:26;3.43;;;1.13;;
16890;SDS011;8562;52.246;20.966;2023-07-31T13:24:51;2.60;;;1.13;;
16890;SDS011;8562;52.246;20.966;2023-07-31T13:27:16;1.43;;;1.07;;
16890;SDS011;8562;52.246;20.966;2023-07-31T13:29:44;2.30;;;0.80;;
16890;SDS011;8562;52.246;20.966;2023-07-31T13:32:09;2.63;;;1.10;;
16890;SDS011;8562;52.246;20.966;2023-07-31T13:34:34;3.43;;;1.00;;
16890;SDS011;8562;52.246;20.966;2023-07-31T13:37:00;3.30;;;1.30;;
16890;SDS011;8562;52.246;20.966;2023-07-31T13:39:25;2.67;;;1.47;;
16890;SDS011;8562;52.246;20.966;2023-07-31T13:41:50;1.30;;;1.00;;
16890;SDS011;8562;52.246;20.966;2023-07-31T13:44:15;1.57;;;1.00;;
16890;SDS011;8562;52.246;20.966;2023-07-31T13:46:41;2.80;;;1.03;;
16890;SDS011;8562;52.246;20.966;2023-07-31T13:49:06;2.37;;;0.83;;
16890;SDS011;8562;52.246;20.966;2023-07-31T13:51:31;2.43;;;0.97;;
16890;SDS011;8562;52.246;20.966;2023-07-31T13:53:57;1.60;;;0.97;;
16890;SDS011;8562;52.246;20.966;2023-07-31T13:56:22;1.63;;;1.00;;
16890;SDS011;8562;52.246;20.966;2023-07-31T13:58:47;3.23;;;0.90;;
16890;SDS011;8562;52.246;20.966;2023-07-31T14:01:12;1.43;;;1.13;;
16890;SDS011;8562;52.246;20.966;2023-07-31T14:03:38;1.47;;;1.00;;
16890;SDS011;8562;52.246;20.966;2023-07-31T14:06:03;1.10;;;1.00;;
16890;SDS011;8562;52.246;20.966;2023-07-31T14:08:29;1.67;;;0.90;;
16890;SDS011;8562;52.246;20.966;2023-07-31T14:10:55;2.33;;;1.37;;
16890;SDS011;8562;52.246;20.966;2023-07-31T14:13:20;1.30;;;1.20;;
16890;SDS011;8562;52.246;20.966;2023-07-31T14:15:46;4.37;;;1.17;;
16890;SDS011;8562;52.246;20.966;2023-07-31T14:18:11;3.30;;;1.30;;
16890;SDS011;8562;52.246;20.966;2023-07-31T14:20:36;1.10;;;0.90;;
16890;SDS011;8562;52.246;20.966;2023-07-31T14:23:02;2.87;;;1.83;;
16890;SDS011;8562;52.246;20.966;2023-07-31T14:25:27;2.93;;;1.20;;
16890;SDS011;8562;52.246;20.966;2023-07-31T14:27:52;1.30;;;0.90;;
16890;SDS011;8562;52.246;20.966;2023-07-31T14:30:18;3.83;;;1.30;;
16890;SDS011;8562;52.246;20.966;2023-07-31T14:32:43;2.17;;;1.00;;
16890;SDS011;8562;52.246;20.966;2023-07-31T14:35:09;3.60;;;1.27;;
16890;SDS011;8562;52.246;20.966;2023-07-31T14:37:38;2.87;;;1.70;;
16890;SDS011;8562;52.246;20.966;2023-07-31T14:40:04;2.23;;;1.30;;
16890;SDS011;8562;52.246;20.966;2023-07-31T14:42:29;4.53;;;1.10;;
16890;SDS011;8562;52.246;20.966;2023-07-31T14:44:55;2.07;;;1.00;;